Cam: Der Himmel über Mannheim, aktuelles Bild mit Wetterinformationen (Metar)



Der Himmel über Mannheim
Die WebCam zeigt nach Norden. (Feudenheim 3km, Vogelstang 6km, Frankfurt 70km)

Letzter SYNOP von MA-Vogelstang. Zeitformat[UTC].
Beispiel: 18hr entspricht 19:00 Uhr oder bei Sommerzeit 20 Uhr


Das aktuelle Wetter in Baden Wurttemberg, Neuostheim, Germany:

Baden Wurttemberg, Neuostheim, Germany stehen keine DATEN zur Verfügung.
METAR:

Das aktuelle Wetter in Mannheim, Seckenheim, Germany

0968: Neuester Wetterbericht von 09:25 Uhr. Die Windgeschwindigkeit war 1.0 m/s (2.3 Meilen pro Stunde) und er kam aus Ost/Südost (110°). Die Temperatur war 15 °C (59 °F) bei einem Taupunkt von 3 °C (37 °F). Der Luftdruck stand auf 1013 hPa (29.91 inHg). Die relative Luftfeuchtigkeit erreichte 44.4%. Der Himmel war klar.
METAR: 09682 300825Z 11002KT SKC 15/03 Q1013

Mehr zum Thema Metar


Nach oben

HomeHome

Schnellzugriff auf diese Seite mit c.maw24.de oder cam.Mannheim-Wetter.Info


XHTML 1.0 Transitional